createdAt,value
2018-04-15T00:01:08.173Z,97638.10
2018-04-15T00:03:38.020Z,97647.01
2018-04-15T00:06:07.199Z,97643.35
2018-04-15T00:08:36.886Z,97639.66
2018-04-15T00:11:06.271Z,97637.55
2018-04-15T00:13:35.866Z,97631.70
2018-04-15T00:16:05.406Z,97619.98
2018-04-15T00:18:34.997Z,97620.52
2018-04-15T00:21:04.632Z,97610.73
2018-04-15T00:23:33.842Z,97615.13
2018-04-15T00:26:03.521Z,97616.22
2018-04-15T00:28:32.917Z,97619.22
2018-04-15T00:31:03.084Z,97616.03
2018-04-15T00:33:32.628Z,97615.87
2018-04-15T00:36:01.654Z,97612.58
2018-04-15T00:38:30.992Z,97600.55
2018-04-15T00:41:00.728Z,97607.19
2018-04-15T00:43:30.381Z,97611.63
2018-04-15T00:45:59.390Z,97610.80
2018-04-15T00:48:28.980Z,97613.33
2018-04-15T00:50:58.838Z,97611.08
2018-04-15T00:53:33.251Z,97603.23
2018-04-15T00:56:02.966Z,97604.79
2018-04-15T00:58:36.215Z,97606.19
2018-04-15T01:01:06.037Z,97603.19
2018-04-15T01:03:35.310Z,97600.38
2018-04-15T01:06:04.895Z,97603.68
2018-04-15T01:08:33.951Z,97606.08
2018-04-15T01:11:03.410Z,97605.55
2018-04-15T01:13:32.958Z,97595.34
2018-04-15T01:16:02.560Z,97604.95
2018-04-15T01:18:31.867Z,97607.99
2018-04-15T01:21:01.522Z,97603.45
2018-04-15T01:23:30.120Z,97600.03
2018-04-15T01:25:59.214Z,97595.56
2018-04-15T01:28:28.852Z,97603.84
2018-04-15T01:30:58.369Z,97604.62
2018-04-15T01:33:27.840Z,97602.55
2018-04-15T01:35:57.131Z,97608.81
2018-04-15T01:38:26.659Z,97618.42
2018-04-15T01:40:55.870Z,97615.20
2018-04-15T01:43:25.393Z,97624.98
2018-04-15T01:45:54.656Z,97626.81
2018-04-15T01:48:28.082Z,97634.47
2018-04-15T01:50:57.231Z,97634.14
2018-04-15T01:53:24.692Z,97635.19
2018-04-15T01:55:53.339Z,97629.50
2018-04-15T01:58:22.654Z,97622.11
2018-04-15T02:00:51.845Z,97623.02
2018-04-15T02:03:20.938Z,97630.98
2018-04-15T02:05:50.246Z,97632.59
2018-04-15T02:08:19.368Z,97634.66
2018-04-15T02:10:48.955Z,97631.39
2018-04-15T02:13:18.041Z,97635.41
2018-04-15T02:15:47.476Z,97633.41
2018-04-15T02:18:17.158Z,97632.55
2018-04-15T02:20:46.718Z,97625.87
2018-04-15T02:23:16.158Z,97624.96
2018-04-15T02:25:45.353Z,97626.94
2018-04-15T02:28:15.556Z,97625.41
2018-04-15T02:30:45.007Z,97622.67
2018-04-15T02:33:14.157Z,97624.35
2018-04-15T02:35:43.752Z,97622.22
2018-04-15T02:38:14.770Z,97601.70
2018-04-15T02:40:43.988Z,97602.83
2018-04-15T02:43:13.486Z,97587.13
2018-04-15T02:45:42.917Z,97594.66
2018-04-15T02:48:12.522Z,97585.79
2018-04-15T02:50:41.996Z,97583.27
2018-04-15T02:53:11.137Z,97586.63
2018-04-15T02:55:40.842Z,97579.97
2018-04-15T02:58:14.179Z,97581.47
2018-04-15T03:00:43.544Z,97574.48
2018-04-15T03:03:12.788Z,97579.83
2018-04-15T03:05:42.486Z,97578.55
2018-04-15T03:08:11.791Z,97573.80
2018-04-15T03:10:39.273Z,97573.94
2018-04-15T03:13:08.855Z,97572.23
2018-04-15T03:15:38.567Z,97563.91
2018-04-15T03:18:07.790Z,97563.91
2018-04-15T03:20:36.966Z,97558.56
2018-04-15T03:23:04.528Z,97560.23
2018-04-15T03:25:33.762Z,97570.05
2018-04-15T03:28:02.817Z,97567.19
2018-04-15T03:30:32.295Z,97569.07
2018-04-15T03:33:02.157Z,97566.27
2018-04-15T03:35:30.009Z,97569.64
2018-04-15T03:37:59.304Z,97555.83
2018-04-15T03:40:29.046Z,97555.28
2018-04-15T03:42:58.125Z,97560.28
2018-04-15T03:45:27.317Z,97563.56
2018-04-15T03:47:56.635Z,97558.52
2018-04-15T03:50:27.112Z,97550.41
2018-04-15T03:52:57.263Z,97547.64
2018-04-15T03:55:28.382Z,97544.58
2018-04-15T03:57:57.662Z,97541.92
2018-04-15T04:00:26.375Z,97541.52
2018-04-15T04:02:59.675Z,97531.75
2018-04-15T04:05:30.338Z,97530.92
2018-04-15T04:08:00.760Z,97521.48
2018-04-15T04:10:29.838Z,97516.45
2018-04-15T04:12:59.020Z,97518.85
2018-04-15T04:15:28.217Z,97524.03
2018-04-15T04:18:09.004Z,97528.66
2018-04-15T04:20:49.360Z,97527.05
2018-04-15T04:23:30.184Z,97518.88
2018-04-15T04:26:05.781Z,97520.64
2018-04-15T04:28:35.010Z,97517.75
2018-04-15T04:31:04.340Z,97524.06
2018-04-15T04:33:33.632Z,97524.36
2018-04-15T04:36:02.853Z,97518.09
2018-04-15T04:38:31.816Z,97511.24
2018-04-15T04:41:01.501Z,97509.16
2018-04-15T04:43:30.677Z,97505.56
2018-04-15T04:46:00.118Z,97511.50
2018-04-15T04:48:29.365Z,97509.91
2018-04-15T04:50:59.065Z,97511.02
2018-04-15T04:53:28.304Z,97517.20
2018-04-15T04:55:58.158Z,97523.54
2018-04-15T04:58:27.322Z,97522.86
2018-04-15T05:00:56.865Z,97524.33
2018-04-15T05:03:26.241Z,97533.23
2018-04-15T05:05:54.400Z,97536.67
2018-04-15T05:08:23.379Z,97525.11
2018-04-15T05:10:52.703Z,97530.80
2018-04-15T05:13:21.296Z,97536.20
2018-04-15T05:15:51.072Z,97537.16
2018-04-15T05:18:18.548Z,97532.95
2018-04-15T05:20:47.641Z,97542.41
2018-04-15T05:23:17.257Z,97538.44
2018-04-15T05:25:46.803Z,97542.89
2018-04-15T05:28:16.358Z,97544.23
2018-04-15T05:30:45.677Z,97539.63
2018-04-15T05:33:15.230Z,97545.07
2018-04-15T05:35:44.336Z,97542.17
2018-04-15T05:38:14.269Z,97543.97
2018-04-15T05:40:43.580Z,97536.24
2018-04-15T05:43:13.067Z,97535.20
2018-04-15T05:45:42.219Z,97532.65
2018-04-15T05:48:11.602Z,97529.18
2018-04-15T05:50:40.757Z,97529.17
2018-04-15T05:53:10.439Z,97527.10
2018-04-15T05:55:43.395Z,97537.31
2018-04-15T05:58:12.801Z,97530.53
2018-04-15T06:00:42.108Z,97538.41
2018-04-15T06:03:11.233Z,97531.41
2018-04-15T06:05:40.981Z,97528.98
2018-04-15T06:08:10.518Z,97516.87
2018-04-15T06:10:39.955Z,97517.60
2018-04-15T06:13:08.916Z,97522.22
2018-04-15T06:15:38.271Z,97524.86
2018-04-15T06:18:07.155Z,97525.86
2018-04-15T06:20:37.815Z,97523.48
2018-04-15T06:23:07.194Z,97523.77
2018-04-15T06:25:36.241Z,97520.59
2018-04-15T06:28:04.944Z,97516.88
2018-04-15T06:30:34.034Z,97516.56
2018-04-15T06:33:02.944Z,97514.56
2018-04-15T06:35:32.969Z,97520.98
2018-04-15T06:38:01.991Z,97518.22
2018-04-15T06:40:31.509Z,97513.60
2018-04-15T06:43:01.136Z,97516.42
2018-04-15T06:45:30.124Z,97521.00
2018-04-15T06:47:59.581Z,97528.27
2018-04-15T06:50:29.136Z,97526.22
2018-04-15T06:52:58.404Z,97523.70
2018-04-15T06:55:27.064Z,97522.48
2018-04-15T06:57:56.557Z,97524.28
2018-04-15T07:00:25.218Z,97518.98
2018-04-15T07:02:54.596Z,97521.15
2018-04-15T07:05:24.428Z,97519.41
2018-04-15T07:07:54.008Z,97527.43
2018-04-15T07:10:23.300Z,97515.09
2018-04-15T07:12:52.165Z,97517.32
2018-04-15T07:15:21.888Z,97515.83
2018-04-15T07:17:51.202Z,97512.25
2018-04-15T07:20:24.335Z,97506.16
2018-04-15T07:22:53.962Z,97513.39
2018-04-15T07:25:23.012Z,97493.72
2018-04-15T07:27:51.339Z,97496.72
2018-04-15T07:30:20.820Z,97487.76
2018-04-15T07:32:49.051Z,97489.64
2018-04-15T07:35:22.867Z,97479.93
2018-04-15T07:37:52.067Z,97476.75
2018-04-15T07:40:20.375Z,97471.89
2018-04-15T07:42:48.419Z,97470.27
2018-04-15T07:45:17.247Z,97469.80
2018-04-15T07:47:46.535Z,97464.42
2018-04-15T07:50:15.918Z,97465.32
2018-04-15T07:52:43.707Z,97463.94
2018-04-15T07:55:13.891Z,97464.92
2018-04-15T07:57:43.438Z,97459.09
2018-04-15T08:00:12.836Z,97456.06
2018-04-15T08:02:42.129Z,97455.63
2018-04-15T08:05:11.279Z,97461.42
2018-04-15T08:07:43.326Z,97462.16
2018-04-15T08:10:12.505Z,97459.39
2018-04-15T08:12:41.859Z,97459.53
2018-04-15T08:15:10.856Z,97462.65
2018-04-15T08:17:44.627Z,97467.16
2018-04-15T08:20:13.744Z,97474.08
2018-04-15T08:22:43.560Z,97478.25
2018-04-15T08:25:14.357Z,97477.00
2018-04-15T08:27:45.251Z,97466.20
2018-04-15T08:30:18.773Z,97462.65
2018-04-15T08:32:48.154Z,97463.91
2018-04-15T08:35:17.498Z,97464.33
2018-04-15T08:37:47.219Z,97460.26
2018-04-15T08:40:16.662Z,97454.48
2018-04-15T08:42:46.007Z,97454.14
2018-04-15T08:45:15.724Z,97451.30
2018-04-15T08:47:45.082Z,97454.95
2018-04-15T08:50:14.041Z,97449.66
2018-04-15T08:52:43.415Z,97454.31
2018-04-15T08:55:17.108Z,97443.26
2018-04-15T08:57:44.703Z,97443.66
2018-04-15T09:00:13.244Z,97448.08
2018-04-15T09:02:42.585Z,97446.09
2018-04-15T09:05:11.774Z,97437.17
2018-04-15T09:07:41.066Z,97439.27
2018-04-15T09:10:08.616Z,97433.64
2018-04-15T09:12:38.485Z,97440.61
2018-04-15T09:15:13.053Z,97440.45
2018-04-15T09:17:42.827Z,97425.92
2018-04-15T09:20:13.447Z,97428.59
2018-04-15T09:22:43.185Z,97431.52
2018-04-15T09:25:12.565Z,97431.47
2018-04-15T09:27:42.628Z,97430.33
2018-04-15T09:30:13.005Z,97429.22
2018-04-15T09:32:42.402Z,97430.10
2018-04-15T09:35:11.728Z,97432.33
2018-04-15T09:37:45.590Z,97436.52
2018-04-15T09:40:14.715Z,97428.22
2018-04-15T09:42:44.085Z,97423.65
2018-04-15T09:45:13.371Z,97421.95
2018-04-15T09:47:42.347Z,97424.69
2018-04-15T09:50:12.023Z,97425.95
2018-04-15T09:52:41.530Z,97414.70
2018-04-15T09:55:12.765Z,97412.20
2018-04-15T09:57:43.657Z,97405.47
2018-04-15T10:00:13.732Z,97398.98
2018-04-15T10:02:43.285Z,97402.57
2018-04-15T10:05:12.494Z,97399.89
2018-04-15T10:07:42.426Z,97401.40
2018-04-15T10:10:15.846Z,97396.81
2018-04-15T10:12:46.529Z,97393.30
2018-04-15T10:15:16.241Z,97392.19
2018-04-15T10:17:45.043Z,97387.03
2018-04-15T10:20:18.678Z,97385.23
2018-04-15T10:22:51.678Z,97380.70
2018-04-15T10:25:21.146Z,97369.41
2018-04-15T10:27:48.692Z,97370.96
2018-04-15T10:30:19.538Z,97370.39
2018-04-15T10:32:48.657Z,97363.50
2018-04-15T10:35:18.502Z,97358.59
2018-04-15T10:37:47.731Z,97358.38
2018-04-15T10:40:15.368Z,97354.28
2018-04-15T10:42:45.403Z,97357.19
2018-04-15T10:45:14.759Z,97354.80
2018-04-15T10:47:44.100Z,97361.91
2018-04-15T10:50:13.970Z,97366.69
2018-04-15T10:52:41.428Z,97368.44
2018-04-15T10:55:10.332Z,97359.96
2018-04-15T10:57:39.573Z,97353.80
2018-04-15T11:00:08.840Z,97353.70
2018-04-15T11:02:38.197Z,97348.97
2018-04-15T11:05:07.440Z,97354.22
2018-04-15T11:07:37.028Z,97349.95
2018-04-15T11:10:05.783Z,97346.88
2018-04-15T11:12:35.756Z,97345.17
2018-04-15T11:15:04.905Z,97337.67
2018-04-15T11:17:34.327Z,97337.59
2018-04-15T11:20:03.669Z,97337.53
2018-04-15T11:22:33.065Z,97332.44
2018-04-15T11:25:02.238Z,97328.91
2018-04-15T11:27:36.689Z,97318.52
2018-04-15T11:30:05.831Z,97318.39
2018-04-15T11:32:33.401Z,97316.38
2018-04-15T11:35:02.456Z,97307.66
2018-04-15T11:37:32.140Z,97310.13
2018-04-15T11:40:01.192Z,97302.16
2018-04-15T11:42:34.795Z,97302.53
2018-04-15T11:45:03.567Z,97308.55
2018-04-15T11:47:32.967Z,97291.68
2018-04-15T11:50:01.492Z,97296.94
2018-04-15T11:52:31.163Z,97287.39
2018-04-15T11:55:00.003Z,97287.73
2018-04-15T11:57:29.272Z,97279.05
2018-04-15T11:59:58.353Z,97271.95
2018-04-15T12:02:27.957Z,97271.02
2018-04-15T12:04:58.386Z,97270.53
2018-04-15T12:07:26.553Z,97274.80
2018-04-15T12:09:56.443Z,97272.42
2018-04-15T12:12:25.057Z,97271.03
2018-04-15T12:14:54.687Z,97261.25
2018-04-15T12:17:23.772Z,97262.80
2018-04-15T12:19:53.035Z,97270.80
2018-04-15T12:22:22.897Z,97263.74
2018-04-15T12:24:52.547Z,97262.13
2018-04-15T12:27:26.194Z,97260.97
2018-04-15T12:29:55.819Z,97249.68
2018-04-15T12:32:24.945Z,97240.96
2018-04-15T12:34:54.197Z,97238.47
2018-04-15T12:37:23.553Z,97245.66
2018-04-15T12:39:52.177Z,97233.13
2018-04-15T12:42:21.509Z,97221.48
2018-04-15T12:44:52.172Z,97218.19
2018-04-15T12:47:21.614Z,97200.12
2018-04-15T12:49:50.795Z,97193.73
2018-04-15T12:52:20.126Z,97189.66
2018-04-15T12:54:47.936Z,97186.19
2018-04-15T12:57:17.705Z,97174.80
2018-04-15T12:59:48.375Z,97162.70
2018-04-15T13:02:18.465Z,97162.02
2018-04-15T13:04:48.326Z,97166.95
2018-04-15T13:07:17.072Z,97157.93
2018-04-15T13:09:47.869Z,97162.13
2018-04-15T13:12:17.301Z,97157.05
2018-04-15T13:14:46.473Z,97164.45
2018-04-15T13:17:15.702Z,97165.70
2018-04-15T13:19:45.458Z,97168.16
2018-04-15T13:22:14.118Z,97162.33
2018-04-15T13:24:42.880Z,97162.72
2018-04-15T13:27:10.379Z,97153.52
2018-04-15T13:29:39.474Z,97156.55
2018-04-15T13:32:08.874Z,97154.48
2018-04-15T13:34:38.854Z,97162.79
2018-04-15T13:37:07.951Z,97173.18
2018-04-15T13:39:37.503Z,97171.56
2018-04-15T13:42:06.231Z,97174.88
2018-04-15T13:44:35.634Z,97176.03
2018-04-15T13:47:04.654Z,97174.84
2018-04-15T13:49:34.019Z,97170.08
2018-04-15T13:52:03.557Z,97166.65
2018-04-15T13:54:37.007Z,97165.59
2018-04-15T13:57:06.577Z,97159.09
2018-04-15T13:59:35.396Z,97144.45
2018-04-15T14:02:04.854Z,97139.70
2018-04-15T14:04:34.446Z,97133.58
2018-04-15T14:07:04.041Z,97127.48
2018-04-15T14:09:33.621Z,97129.08
2018-04-15T14:12:02.353Z,97118.68
2018-04-15T14:14:31.847Z,97122.81
2018-04-15T14:17:01.673Z,97122.76
2018-04-15T14:19:30.760Z,97113.55
2018-04-15T14:21:59.183Z,97107.94
2018-04-15T14:24:28.264Z,97106.14
2018-04-15T14:27:00.133Z,97109.00
2018-04-15T14:29:29.324Z,97104.27
2018-04-15T14:31:56.817Z,97105.41
2018-04-15T14:34:28.011Z,97099.77
2018-04-15T14:36:57.389Z,97101.71
2018-04-15T14:39:27.246Z,97101.23
2018-04-15T14:41:57.727Z,97107.88
2018-04-15T14:44:25.263Z,97113.52
2018-04-15T14:46:54.776Z,97113.37
2018-04-15T14:49:24.187Z,97102.76
2018-04-15T14:51:55.040Z,97098.34
2018-04-15T14:54:24.424Z,97095.78
2018-04-15T14:56:53.693Z,97094.31
2018-04-15T14:59:23.658Z,97088.76
2018-04-15T15:01:56.844Z,97084.58
2018-04-15T15:04:30.605Z,97080.06
2018-04-15T15:06:59.764Z,97075.34
2018-04-15T15:09:29.437Z,97078.28
2018-04-15T15:11:58.527Z,97081.62
2018-04-15T15:14:28.557Z,97072.96
2018-04-15T15:16:59.141Z,97073.55
2018-04-15T15:19:29.004Z,97069.44
2018-04-15T15:21:58.526Z,97061.20
2018-04-15T15:24:27.893Z,97065.50
2018-04-15T15:26:57.572Z,97060.79
2018-04-15T15:29:26.736Z,97065.53
2018-04-15T15:31:56.157Z,97065.92
2018-04-15T15:34:25.336Z,97060.81
2018-04-15T15:36:52.785Z,97055.69
2018-04-15T15:39:22.121Z,97053.95
2018-04-15T15:41:51.753Z,97052.39
2018-04-15T15:44:20.893Z,97048.44
2018-04-15T15:46:50.388Z,97051.37
2018-04-15T15:49:18.597Z,97051.76
2018-04-15T15:51:47.840Z,97045.58
2018-04-15T15:54:16.799Z,97057.72
2018-04-15T15:56:46.208Z,97055.35
2018-04-15T15:59:15.310Z,97058.07
2018-04-15T16:01:42.766Z,97057.47
2018-04-15T16:04:12.536Z,97061.90
2018-04-15T16:06:41.312Z,97063.36
2018-04-15T16:09:10.850Z,97066.78
2018-04-15T16:11:40.629Z,97058.00
2018-04-15T16:14:11.221Z,97057.94
2018-04-15T16:16:40.647Z,97067.37
2018-04-15T16:19:10.223Z,97063.53
2018-04-15T16:21:39.266Z,97061.28
2018-04-15T16:24:07.842Z,97057.38
2018-04-15T16:26:37.288Z,97055.47
2018-04-15T16:29:06.532Z,97056.02
2018-04-15T16:31:35.925Z,97056.08
2018-04-15T16:34:05.720Z,97055.25
2018-04-15T16:36:34.772Z,97057.47
2018-04-15T16:39:03.925Z,97058.94
2018-04-15T16:41:33.256Z,97062.64
2018-04-15T16:44:02.353Z,97052.08
2018-04-15T16:46:31.662Z,97058.25
2018-04-15T16:49:00.981Z,97060.28
2018-04-15T16:51:30.040Z,97061.45
2018-04-15T16:53:57.553Z,97068.99
2018-04-15T16:56:26.842Z,97071.77
2018-04-15T16:58:56.973Z,97075.67
2018-04-15T17:01:30.907Z,97072.73
2018-04-15T17:04:00.536Z,97080.02
2018-04-15T17:06:30.210Z,97079.18
2018-04-15T17:08:59.359Z,97082.31
2018-04-15T17:11:29.720Z,97084.28
2018-04-15T17:13:58.911Z,97084.90
2018-04-15T17:16:28.584Z,97086.00
2018-04-15T17:18:57.753Z,97085.77
2018-04-15T17:21:28.131Z,97090.52
2018-04-15T17:23:57.979Z,97088.83
2018-04-15T17:26:28.051Z,97088.25
2018-04-15T17:28:59.257Z,97091.64
2018-04-15T17:31:27.877Z,97104.95
2018-04-15T17:33:58.164Z,97105.13
2018-04-15T17:36:27.775Z,97101.95
2018-04-15T17:38:57.274Z,97112.22
2018-04-15T17:41:26.043Z,97113.25
2018-04-15T17:43:55.551Z,97112.22
2018-04-15T17:46:24.948Z,97119.20
2018-04-15T17:48:54.274Z,97117.06
2018-04-15T17:51:23.835Z,97119.25
2018-04-15T17:53:53.027Z,97118.31
2018-04-15T17:56:22.445Z,97120.77
2018-04-15T17:58:51.675Z,97118.70
2018-04-15T18:01:21.087Z,97125.27
2018-04-15T18:03:51.306Z,97127.48
2018-04-15T18:06:21.595Z,97127.09
2018-04-15T18:08:51.130Z,97131.94
2018-04-15T18:11:18.640Z,97129.52
2018-04-15T18:13:49.159Z,97135.28
2018-04-15T18:16:18.562Z,97133.58
2018-04-15T18:18:48.874Z,97134.13
2018-04-15T18:21:19.358Z,97138.55
2018-04-15T18:23:48.817Z,97129.82
2018-04-15T18:26:18.064Z,97136.58
2018-04-15T18:28:47.413Z,97132.73
2018-04-15T18:31:17.917Z,97130.06
2018-04-15T18:33:49.080Z,97135.06
2018-04-15T18:36:18.131Z,97137.04
2018-04-15T18:38:48.507Z,97128.42
2018-04-15T18:41:16.914Z,97133.13
2018-04-15T18:43:45.144Z,97132.82
2018-04-15T18:46:16.031Z,97133.91
2018-04-15T18:48:46.330Z,97140.81
2018-04-15T18:51:14.664Z,97140.75
2018-04-15T18:53:44.208Z,97148.45
2018-04-15T18:56:13.677Z,97146.34
2018-04-15T18:58:43.016Z,97144.11
2018-04-15T19:01:12.638Z,97150.44
2018-04-15T19:03:41.429Z,97142.46
2018-04-15T19:06:14.885Z,97144.33
2018-04-15T19:08:48.197Z,97151.08
2018-04-15T19:11:18.247Z,97146.80
2018-04-15T19:13:47.732Z,97143.72
2018-04-15T19:16:18.440Z,97153.52
2018-04-15T19:18:48.386Z,97159.34
2018-04-15T19:21:17.691Z,97148.92
2018-04-15T19:23:47.534Z,97157.82
2018-04-15T19:26:15.809Z,97158.14
2018-04-15T19:28:45.779Z,97158.25
2018-04-15T19:31:15.691Z,97159.26
2018-04-15T19:33:45.044Z,97167.11
2018-04-15T19:36:14.221Z,97170.63
2018-04-15T19:38:42.894Z,97176.92
2018-04-15T19:41:12.769Z,97175.84
2018-04-15T19:43:42.247Z,97182.48
2018-04-15T19:46:11.996Z,97182.23
2018-04-15T19:48:41.548Z,97187.12
2018-04-15T19:51:11.320Z,97185.62
2018-04-15T19:53:42.250Z,97182.49
2018-04-15T19:56:11.682Z,97188.11
2018-04-15T19:58:41.812Z,97183.16
2018-04-15T20:01:11.034Z,97182.12
2018-04-15T20:03:40.810Z,97184.75
2018-04-15T20:06:09.939Z,97180.84
2018-04-15T20:08:39.757Z,97183.09
2018-04-15T20:11:08.954Z,97182.30
2018-04-15T20:13:39.540Z,97185.59
2018-04-15T20:16:08.838Z,97181.86
2018-04-15T20:18:37.810Z,97187.63
2018-04-15T20:21:07.160Z,97184.09
2018-04-15T20:23:36.706Z,97183.27
2018-04-15T20:26:06.999Z,97185.67
2018-04-15T20:28:41.772Z,97192.15
2018-04-15T20:31:12.324Z,97189.06
2018-04-15T20:33:42.098Z,97186.30
2018-04-15T20:36:10.983Z,97188.23
2018-04-15T20:38:45.774Z,97183.74
2018-04-15T20:41:15.487Z,97182.22
2018-04-15T20:43:43.956Z,97182.36
2018-04-15T20:46:12.988Z,97179.20
2018-04-15T20:48:42.150Z,97176.30
2018-04-15T20:51:12.221Z,97176.91
2018-04-15T20:53:41.680Z,97173.56
2018-04-15T20:56:10.408Z,97174.05
2018-04-15T20:58:39.687Z,97174.05
2018-04-15T21:01:09.390Z,97170.31
2018-04-15T21:03:39.181Z,97181.17
2018-04-15T21:06:11.802Z,97181.56
2018-04-15T21:08:41.227Z,97177.53
2018-04-15T21:11:23.665Z,97173.39
2018-04-15T21:13:52.491Z,97171.11
2018-04-15T21:16:22.169Z,97162.28
2018-04-15T21:18:51.661Z,97166.37
2018-04-15T21:21:20.965Z,97171.73
2018-04-15T21:23:50.361Z,97166.84
2018-04-15T21:26:17.871Z,97161.92
2018-04-15T21:28:47.909Z,97163.25
2018-04-15T21:31:18.500Z,97162.23
2018-04-15T21:33:48.708Z,97155.58
2018-04-15T21:36:18.072Z,97158.47
2018-04-15T21:38:47.715Z,97159.63
2018-04-15T21:41:17.205Z,97155.73
2018-04-15T21:43:46.779Z,97157.92
2018-04-15T21:46:16.730Z,97169.51
2018-04-15T21:48:46.208Z,97166.78
2018-04-15T21:51:15.243Z,97163.59
2018-04-15T21:53:44.122Z,97168.86
2018-04-15T21:56:13.471Z,97177.98
2018-04-15T21:58:42.773Z,97179.25
2018-04-15T22:01:12.957Z,97175.17
2018-04-15T22:03:44.103Z,97182.08
2018-04-15T22:06:13.899Z,97189.84
2018-04-15T22:08:43.436Z,97189.92
2018-04-15T22:11:15.876Z,97191.42
2018-04-15T22:13:48.685Z,97197.99
2018-04-15T22:16:19.238Z,97193.63
2018-04-15T22:18:49.286Z,97200.27
2018-04-15T22:21:20.377Z,97199.72
2018-04-15T22:23:49.429Z,97202.14
2018-04-15T22:26:18.954Z,97200.53
2018-04-15T22:28:49.543Z,97202.23
2018-04-15T22:31:17.019Z,97199.08
2018-04-15T22:33:46.944Z,97196.94
2018-04-15T22:36:16.372Z,97195.58
2018-04-15T22:38:46.720Z,97195.05
2018-04-15T22:41:16.944Z,97192.00
2018-04-15T22:43:48.047Z,97196.17
2018-04-15T22:46:17.871Z,97196.34
2018-04-15T22:48:47.419Z,97197.02
2018-04-15T22:51:17.211Z,97199.84
2018-04-15T22:53:46.805Z,97197.95
2018-04-15T22:56:17.576Z,97198.33
2018-04-15T22:58:46.930Z,97191.65
2018-04-15T23:01:17.014Z,97190.84
2018-04-15T23:03:47.925Z,97177.91
2018-04-15T23:06:19.607Z,97187.78
2018-04-15T23:08:48.952Z,97190.40
2018-04-15T23:11:18.452Z,97192.15
2018-04-15T23:13:51.744Z,97189.76
2018-04-15T23:16:22.205Z,97185.09
2018-04-15T23:18:53.612Z,97189.81
2018-04-15T23:21:23.100Z,97204.53
2018-04-15T23:23:53.352Z,97208.58
2018-04-15T23:26:22.914Z,97205.08
2018-04-15T23:28:51.924Z,97214.92
2018-04-15T23:31:22.013Z,97221.33
2018-04-15T23:33:51.123Z,97214.69
2018-04-15T23:36:21.186Z,97219.66
2018-04-15T23:38:50.309Z,97207.59
2018-04-15T23:41:20.804Z,97220.18
2018-04-15T23:43:49.991Z,97230.02
2018-04-15T23:46:19.736Z,97232.67
2018-04-15T23:48:49.279Z,97229.16
2018-04-15T23:51:19.201Z,97227.81
2018-04-15T23:53:49.713Z,97231.70
2018-04-15T23:56:19.274Z,97234.36
2018-04-15T23:58:49.472Z,97227.92
